Terminal Aerodrome Forecast
Issued by NWS

Home | Current Version | Previous Version | Text Only | Print | Product List | Glossary On
Versions: 1 2 3 4 5 6 7 8 9 10 11 12 13 14 15
000
FTUS44 KEPZ 272000 AAA
TAFDMN
TAF AMD
KDMN 272034Z 2721/2818 03012G22KT P6SM VCSH SCT050 SCT250
     FM280800 07012KT P6SM SCT070 SCT100 SCT250=

USA.gov is the U.S. government's official web portal to all federal, state and local government web resources and services.